Time;durP1;ratioP1;P1;durP2;ratioP2;P2;SDS_P1;SDS_P2;PMS_P1;PMS_P2;Temp;Humidity;BMP_temperature;BMP_pressure;BME280_temperature;BME280_humidity;BME280_pressure;Samples;Min_cycle;Max_cycle;Signal;HPM_P1;HPM_P2
2023/01/09 00:02:10;;;;;;;15.63;10.57;;;;;;;;;;5027806;28;20095;-65
2023/01/09 00:04:36;;;;;;;15.75;11.48;;;;;;;;;;5029913;28;20036;-65
2023/01/09 00:07:03;;;;;;;15.50;11.73;;;;;;;;;;5029631;28;20029;-65
2023/01/09 00:09:29;;;;;;;16.98;12.40;;;;;;;;;;5029760;28;20523;-65
2023/01/09 00:11:55;;;;;;;16.15;12.25;;;;;;;;;;5029583;28;20485;-65
2023/01/09 00:14:22;;;;;;;16.65;14.85;;;;;;;;;;5027615;28;20085;-65
2023/01/09 00:16:48;;;;;;;16.70;14.90;;;;;;;;;;5029378;28;20025;-65
2023/01/09 00:19:14;;;;;;;18.52;16.60;;;;;;;;;;5029056;28;20025;-63
2023/01/09 00:21:40;;;;;;;18.98;17.08;;;;;;;;;;5029167;28;20041;-64
2023/01/09 00:24:07;;;;;;;18.00;16.10;;;;;;;;;;5014837;28;20033;-65
2023/01/09 00:26:34;;;;;;;24.05;21.65;;;;;;;;;;5009576;28;20113;-63
2023/01/09 00:29:00;;;;;;;25.85;23.55;;;;;;;;;;5009378;28;20117;-63
2023/01/09 00:31:26;;;;;;;27.05;24.63;;;;;;;;;;5009070;28;20719;-64
2023/01/09 00:33:52;;;;;;;26.88;24.67;;;;;;;;;;5028495;28;20449;-65
2023/01/09 00:36:18;;;;;;;27.05;24.75;;;;;;;;;;5029588;28;20033;-64
2023/01/09 00:38:44;;;;;;;25.33;23.15;;;;;;;;;;5029312;28;20092;-64
2023/01/09 00:41:13;;;;;;;27.25;24.65;;;;;;;;;;5029254;28;20113;-63
2023/01/09 00:43:43;;;;;;;28.98;26.58;;;;;;;;;;5026551;28;20521;-66
2023/01/09 00:46:09;;;;;;;29.67;27.15;;;;;;;;;;5028409;28;20037;-64
2023/01/09 00:48:38;;;;;;;28.55;25.95;;;;;;;;;;5028967;28;20124;-64
2023/01/09 00:51:06;;;;;;;29.92;27.23;;;;;;;;;;5029365;28;20092;-64
2023/01/09 00:53:32;;;;;;;28.15;25.83;;;;;;;;;;5028625;28;20080;-63
2023/01/09 00:56:00;;;;;;;31.98;28.52;;;;;;;;;;5029142;28;20430;-64
2023/01/09 00:58:26;;;;;;;32.37;29.60;;;;;;;;;;5029420;28;20376;-64
2023/01/09 01:00:52;;;;;;;29.50;27.20;;;;;;;;;;5028893;28;20037;-64
2023/01/09 01:03:18;;;;;;;29.58;27.17;;;;;;;;;;5028460;28;20041;-63
2023/01/09 01:08:29;;;;;;;33.15;30.65;;;;;;;;;;5010066;28;20123;-58
2023/01/09 01:10:55;;;;;;;31.55;29.13;;;;;;;;;;5010654;28;20541;-58
2023/01/09 01:13:21;;;;;;;31.15;28.70;;;;;;;;;;5011559;28;20033;-58
2023/01/09 01:15:47;;;;;;;30.80;28.42;;;;;;;;;;5010527;28;20061;-61
2023/01/09 01:18:13;;;;;;;31.48;29.02;;;;;;;;;;5012052;28;20018;-56
2023/01/09 01:20:40;;;;;;;32.45;29.80;;;;;;;;;;5011320;28;20033;-59
2023/01/09 01:23:07;;;;;;;33.65;30.70;;;;;;;;;;5026836;28;20033;-58
2023/01/09 01:25:35;;;;;;;33.53;30.90;;;;;;;;;;5027743;28;20032;-58
2023/01/09 01:28:01;;;;;;;34.78;32.08;;;;;;;;;;5027774;28;20030;-57
2023/01/09 01:30:27;;;;;;;35.55;32.85;;;;;;;;;;5027546;28;20463;-60
2023/01/09 01:32:53;;;;;;;37.45;34.78;;;;;;;;;;5027657;28;20057;-58
2023/01/09 01:35:19;;;;;;;37.85;35.15;;;;;;;;;;5012125;28;20479;-58
2023/01/09 01:37:45;;;;;;;38.08;35.28;;;;;;;;;;5012306;28;20017;-53
2023/01/09 01:40:11;;;;;;;38.28;35.58;;;;;;;;;;5027563;28;20030;-56
2023/01/09 01:42:44;;;;;;;35.90;33.30;;;;;;;;;;5012287;28;20022;-58
2023/01/09 01:45:13;;;;;;;34.38;31.88;;;;;;;;;;5026359;28;20080;-58
2023/01/09 01:47:39;;;;;;;35.28;32.67;;;;;;;;;;5012235;28;20455;-56
2023/01/09 01:50:09;;;;;;;37.67;34.78;;;;;;;;;;5027536;28;20112;-57
2023/01/09 01:52:36;;;;;;;37.67;34.97;;;;;;;;;;5012238;28;20029;-58
2023/01/09 01:55:03;;;;;;;40.05;37.25;;;;;;;;;;5027142;28;20494;-56
2023/01/09 01:57:30;;;;;;;40.20;37.40;;;;;;;;;;5027482;28;20049;-55
2023/01/09 01:59:57;;;;;;;39.22;36.42;;;;;;;;;;5012130;28;20037;-60
2023/01/09 02:02:25;;;;;;;36.97;34.38;;;;;;;;;;5011888;28;20102;-57
2023/01/09 02:04:53;;;;;;;36.53;33.93;;;;;;;;;;5011668;28;20035;-56
2023/01/09 02:07:19;;;;;;;37.85;35.15;;;;;;;;;;5012412;28;20049;-55
2023/01/09 02:09:45;;;;;;;38.25;35.47;;;;;;;;;;5012794;28;20033;-58
2023/01/09 02:12:22;;;;;;;37.28;34.65;;;;;;;;;;5027128;28;20050;-58
2023/01/09 02:14:48;;;;;;;38.00;35.40;;;;;;;;;;5026823;28;20040;-54
2023/01/09 02:17:19;;;;;;;37.75;35.15;;;;;;;;;;5012005;28;20374;-54
2023/01/09 02:19:45;;;;;;;37.45;34.75;;;;;;;;;;5027145;28;20022;-53
2023/01/09 02:22:14;;;;;;;38.90;36.30;;;;;;;;;;5011790;28;20509;-55
2023/01/09 02:24:59;;;;;;;37.30;34.70;;;;;;;;;;5011524;28;20097;-54
2023/01/09 02:27:28;;;;;;;38.42;35.83;;;;;;;;;;5011886;28;20060;-58
2023/01/09 02:30:20;;;;;;;37.17;34.58;;;;;;;;;;5011436;28;20117;-56
2023/01/09 02:32:55;;;;;;;39.20;36.50;;;;;;;;;;4996005;28;20122;-53
2023/01/09 02:35:40;;;;;;;38.63;35.92;;;;;;;;;;5026726;28;20029;-55
2023/01/09 02:38:06;;;;;;;36.75;34.13;;;;;;;;;;5011888;28;20057;-54
2023/01/09 02:40:35;;;;;;;36.00;33.40;;;;;;;;;;5011995;28;20030;-56
2023/01/09 02:43:01;;;;;;;35.45;32.85;;;;;;;;;;5011937;28;20030;-53
2023/01/09 02:45:27;;;;;;;35.47;32.88;;;;;;;;;;5012212;28;20050;-54
2023/01/09 02:47:53;;;;;;;35.65;32.70;;;;;;;;;;5027342;28;20073;-58
2023/01/09 02:50:22;;;;;;;34.40;31.80;;;;;;;;;;5012128;28;20026;-57
2023/01/09 02:52:59;;;;;;;32.92;30.42;;;;;;;;;;5011674;28;20037;-59
2023/01/09 02:55:25;;;;;;;32.13;29.52;;;;;;;;;;5012905;28;20048;-56
2023/01/09 02:58:00;;;;;;;32.65;30.15;;;;;;;;;;5030488;28;20451;-57
2023/01/09 03:00:29;;;;;;;32.33;29.88;;;;;;;;;;5015104;28;20026;-57
2023/01/09 03:03:05;;;;;;;32.78;30.20;;;;;;;;;;5030285;28;20034;-57
2023/01/09 03:05:41;;;;;;;32.42;29.83;;;;;;;;;;5015140;28;20024;-58
2023/01/09 03:08:11;;;;;;;31.45;28.98;;;;;;;;;;5030188;28;20482;-58
2023/01/09 03:10:37;;;;;;;31.23;28.83;;;;;;;;;;5014822;28;20030;-55
2023/01/09 03:13:03;;;;;;;30.83;28.42;;;;;;;;;;5029712;28;20030;-54
2023/01/09 03:15:31;;;;;;;32.13;29.42;;;;;;;;;;5029990;28;20121;-52
2023/01/09 03:17:57;;;;;;;;;;;;;;;;;;5015252;28;20029;-55
2023/01/09 03:20:26;;;;;;;30.95;28.52;;;;;;;;;;5029955;28;20369;-56
2023/01/09 03:22:56;;;;;;;31.10;28.60;;;;;;;;;;5014563;28;20660;-55
2023/01/09 03:25:23;;;;;;;31.02;28.50;;;;;;;;;;5029551;28;20033;-50
2023/01/09 03:27:52;;;;;;;31.58;28.90;;;;;;;;;;5029578;28;20033;-57
2023/01/09 03:30:18;;;;;;;32.20;29.20;;;;;;;;;;5014576;28;20030;-52
2023/01/09 03:32:44;;;;;;;31.30;28.63;;;;;;;;;;5014446;28;20045;-52
2023/01/09 03:35:10;;;;;;;30.67;28.13;;;;;;;;;;5029399;28;20030;-56
2023/01/09 03:37:36;;;;;;;31.52;28.83;;;;;;;;;;5014338;28;20117;-53
2023/01/09 03:40:02;;;;;;;29.83;27.13;;;;;;;;;;5029593;28;20026;-52
2023/01/09 03:42:28;;;;;;;28.38;25.80;;;;;;;;;;5015006;28;20701;-53
2023/01/09 03:44:54;;;;;;;29.35;26.58;;;;;;;;;;5014687;28;20033;-52
2023/01/09 03:47:20;;;;;;;28.55;25.98;;;;;;;;;;5014302;28;20030;-55
2023/01/09 03:49:46;;;;;;;28.73;26.20;;;;;;;;;;5014173;28;20401;-55
2023/01/09 03:52:12;;;;;;;28.38;25.88;;;;;;;;;;5029353;28;20040;-57
2023/01/09 03:54:38;;;;;;;26.98;24.58;;;;;;;;;;5013861;28;20109;-56
2023/01/09 03:57:04;;;;;;;26.60;24.05;;;;;;;;;;5014136;28;20439;-57
2023/01/09 03:59:30;;;;;;;27.75;25.25;;;;;;;;;;5014149;28;20018;-55
2023/01/09 04:01:56;;;;;;;28.17;25.63;;;;;;;;;;5014002;28;20391;-54
2023/01/09 04:04:22;;;;;;;27.52;25.02;;;;;;;;;;5028981;28;20026;-57
2023/01/09 04:06:48;;;;;;;27.20;24.80;;;;;;;;;;5012990;28;20080;-55
2023/01/09 04:09:14;;;;;;;27.23;24.88;;;;;;;;;;5029145;28;20032;-55
2023/01/09 04:11:40;;;;;;;25.40;23.20;;;;;;;;;;5013717;28;20034;-56
2023/01/09 04:14:06;;;;;;;26.52;24.13;;;;;;;;;;5013480;28;20037;-56
2023/01/09 04:16:32;;;;;;;26.55;24.27;;;;;;;;;;5013778;28;20475;-54
2023/01/09 04:18:58;;;;;;;26.48;24.17;;;;;;;;;;5013720;28;20041;-55
2023/01/09 04:21:24;;;;;;;24.98;22.60;;;;;;;;;;5029161;28;20026;-54
2023/01/09 04:23:50;;;;;;;27.00;24.48;;;;;;;;;;5028182;28;20112;-59
2023/01/09 04:26:16;;;;;;;26.08;23.58;;;;;;;;;;5013578;28;20482;-56
2023/01/09 04:28:42;;;;;;;25.60;23.17;;;;;;;;;;5028796;28;20040;-57
2023/01/09 04:31:08;;;;;;;25.65;23.35;;;;;;;;;;5013493;28;20033;-54
2023/01/09 04:33:35;;;;;;;25.10;22.90;;;;;;;;;;5013177;28;20053;-60
2023/01/09 04:36:01;;;;;;;25.70;23.40;;;;;;;;;;5013183;28;20029;-58
2023/01/09 04:38:27;;;;;;;25.35;23.15;;;;;;;;;;5013591;28;20026;-58
2023/01/09 04:40:53;;;;;;;24.63;22.17;;;;;;;;;;5013256;28;20040;-56
2023/01/09 04:43:19;;;;;;;25.67;23.00;;;;;;;;;;5013104;28;20026;-55
2023/01/09 04:45:45;;;;;;;26.50;22.70;;;;;;;;;;5028274;28;20513;-60
2023/01/09 04:48:11;;;;;;;25.20;22.75;;;;;;;;;;5028240;28;20022;-60
2023/01/09 04:50:37;;;;;;;21.38;19.10;;;;;;;;;;5028432;28;20532;-59
2023/01/09 04:53:04;;;;;;;21.10;18.90;;;;;;;;;;5012710;28;20034;-60
2023/01/09 04:55:30;;;;;;;21.80;19.50;;;;;;;;;;5012889;28;20478;-52
2023/01/09 04:57:56;;;;;;;20.67;18.25;;;;;;;;;;5013048;28;20160;-55
2023/01/09 05:00:22;;;;;;;24.45;17.48;;;;;;;;;;5013017;28;20060;-58
2023/01/09 05:02:48;;;;;;;18.73;16.00;;;;;;;;;;5013011;28;20053;-56
2023/01/09 05:05:14;;;;;;;19.85;15.20;;;;;;;;;;5012502;28;20497;-57
2023/01/09 05:07:40;;;;;;;22.45;15.30;;;;;;;;;;5012640;28;20824;-57
2023/01/09 05:10:07;;;;;;;20.20;15.32;;;;;;;;;;5011653;28;20022;-60
2023/01/09 05:12:35;;;;;;;19.67;15.18;;;;;;;;;;5013006;28;20034;-58
2023/01/09 05:15:01;;;;;;;17.73;15.13;;;;;;;;;;5012654;28;20033;-59
2023/01/09 05:17:27;;;;;;;21.08;15.98;;;;;;;;;;5012417;28;20025;-59
2023/01/09 05:19:52;;;;;;;21.25;15.23;;;;;;;;;;5012328;28;20514;-61
2023/01/09 05:22:18;;;;;;;18.73;15.73;;;;;;;;;;5012521;28;20026;-55
2023/01/09 05:24:44;;;;;;;19.45;15.05;;;;;;;;;;5012180;28;20394;-59
2023/01/09 05:27:10;;;;;;;20.50;14.95;;;;;;;;;;5010772;28;20112;-59
2023/01/09 05:29:36;;;;;;;32.53;17.13;;;;;;;;;;5010895;28;20026;-60
2023/01/09 05:32:02;;;;;;;22.90;15.35;;;;;;;;;;5012299;28;20044;-61
2023/01/09 05:34:28;;;;;;;22.25;16.90;;;;;;;;;;5010673;28;20029;-62
2023/01/09 05:36:55;;;;;;;23.20;18.40;;;;;;;;;;5012145;28;20033;-60
2023/01/09 05:39:21;;;;;;;23.15;17.58;;;;;;;;;;5012008;28;20471;-60
2023/01/09 05:41:47;;;;;;;21.27;16.25;;;;;;;;;;5011002;28;20087;-59
2023/01/09 05:44:13;;;;;;;25.35;17.08;;;;;;;;;;5011726;28;20033;-58
2023/01/09 05:46:39;;;;;;;26.60;17.67;;;;;;;;;;5010675;28;20084;-58
2023/01/09 05:49:05;;;;;;;22.60;16.15;;;;;;;;;;5010501;28;20457;-51
2023/01/09 05:51:31;;;;;;;22.00;16.70;;;;;;;;;;5010568;28;20084;-57
2023/01/09 05:53:57;;;;;;;28.45;17.25;;;;;;;;;;5011397;28;20026;-59
2023/01/09 05:56:23;;;;;;;23.45;16.00;;;;;;;;;;5012047;28;20021;-59
2023/01/09 05:58:49;;;;;;;23.27;16.30;;;;;;;;;;5010465;28;20018;-60
2023/01/09 06:01:15;;;;;;;20.67;14.43;;;;;;;;;;5011799;28;20022;-59
2023/01/09 06:03:41;;;;;;;21.42;14.38;;;;;;;;;;5011361;28;20026;-58
2023/01/09 06:06:07;;;;;;;18.25;13.23;;;;;;;;;;5011331;28;20041;-59
2023/01/09 06:08:33;;;;;;;22.23;15.57;;;;;;;;;;5011791;28;20025;-59
2023/01/09 06:10:59;;;;;;;23.73;15.52;;;;;;;;;;5011457;28;20083;-61
2023/01/09 06:13:25;;;;;;;22.73;14.57;;;;;;;;;;5011205;28;20025;-56
2023/01/09 06:15:51;;;;;;;18.20;12.95;;;;;;;;;;5011693;28;20534;-60
2023/01/09 06:18:17;;;;;;;20.35;14.02;;;;;;;;;;5011473;28;20163;-56
2023/01/09 06:20:44;;;;;;;21.38;14.82;;;;;;;;;;5011415;28;20029;-60
2023/01/09 06:23:11;;;;;;;20.02;12.75;;;;;;;;;;5011167;28;20375;-60
2023/01/09 06:25:36;;;;;;;23.05;13.45;;;;;;;;;;5011063;28;20483;-60
2023/01/09 06:28:03;;;;;;;19.30;12.57;;;;;;;;;;5009980;28;20037;-57
2023/01/09 06:30:29;;;;;;;16.67;11.75;;;;;;;;;;5011129;28;20061;-57
2023/01/09 06:32:55;;;;;;;18.90;12.32;;;;;;;;;;5013922;28;20042;-57
2023/01/09 06:35:21;;;;;;;18.63;12.50;;;;;;;;;;5014449;28;20026;-54
2023/01/09 06:37:50;;;;;;;21.10;12.05;;;;;;;;;;5014306;28;20022;-59
2023/01/09 06:40:16;;;;;;;18.75;12.70;;;;;;;;;;5013256;28;20045;-59
2023/01/09 06:42:43;;;;;;;17.30;11.23;;;;;;;;;;5014314;28;20025;-58
2023/01/09 06:45:10;;;;;;;16.20;11.15;;;;;;;;;;5010744;28;20033;-62
2023/01/09 06:47:36;;;;;;;16.83;11.40;;;;;;;;;;5012899;28;20100;-58
2023/01/09 06:50:02;;;;;;;25.48;12.95;;;;;;;;;;5013471;28;20076;-59
2023/01/09 06:52:28;;;;;;;16.30;11.05;;;;;;;;;;5014715;28;20040;-60
2023/01/09 06:54:53;;;;;;;20.98;12.00;;;;;;;;;;5030150;28;20050;-59
2023/01/09 06:57:19;;;;;;;17.42;11.25;;;;;;;;;;5014234;28;20482;-58
2023/01/09 06:59:45;;;;;;;20.63;10.80;;;;;;;;;;5029937;28;20037;-60
2023/01/09 07:02:16;;;;;;;18.33;10.70;;;;;;;;;;5014965;28;20022;-57
2023/01/09 07:04:42;;;;;;;17.65;10.48;;;;;;;;;;5012883;28;20041;-57
2023/01/09 07:07:08;;;;;;;17.52;11.15;;;;;;;;;;5015152;28;20638;-59
2023/01/09 07:09:34;;;;;;;17.23;11.05;;;;;;;;;;5012856;28;20026;-55
2023/01/09 07:12:00;;;;;;;20.17;10.30;;;;;;;;;;5014277;28;20034;-59
2023/01/09 07:14:26;;;;;;;17.92;10.65;;;;;;;;;;5014050;28;20033;-55
2023/01/09 07:16:52;;;;;;;17.65;10.73;;;;;;;;;;5013923;28;20088;-54
2023/01/09 07:19:18;;;;;;;17.73;10.50;;;;;;;;;;5014246;28;20021;-58
2023/01/09 07:21:44;;;;;;;15.75;10.27;;;;;;;;;;5012134;28;20022;-60
2023/01/09 07:24:10;;;;;;;20.67;10.10;;;;;;;;;;5013533;28;20498;-59
2023/01/09 07:26:36;;;;;;;20.88;9.70;;;;;;;;;;5029208;28;20030;-52
2023/01/09 07:29:02;;;;;;;18.52;10.38;;;;;;;;;;5029254;28;20033;-59
2023/01/09 07:31:28;;;;;;;20.95;11.38;;;;;;;;;;5013519;28;20022;-54
2023/01/09 07:33:54;;;;;;;20.13;11.05;;;;;;;;;;5013720;28;20375;-55
2023/01/09 07:36:20;;;;;;;18.55;11.02;;;;;;;;;;5028988;28;20022;-59
2023/01/09 07:38:46;;;;;;;19.60;11.40;;;;;;;;;;5013968;28;20026;-58
2023/01/09 07:41:12;;;;;;;16.27;11.20;;;;;;;;;;5013325;28;20022;-57
2023/01/09 07:43:38;;;;;;;24.75;12.30;;;;;;;;;;5027764;28;20026;-55
2023/01/09 07:46:05;;;;;;;22.58;11.57;;;;;;;;;;5013548;28;20030;-56
2023/01/09 07:48:31;;;;;;;19.50;11.52;;;;;;;;;;5013387;28;20088;-58
2023/01/09 07:50:57;;;;;;;18.77;11.55;;;;;;;;;;5013222;28;20128;-58
2023/01/09 07:53:23;;;;;;;22.08;13.02;;;;;;;;;;5013276;28;20064;-50
2023/01/09 07:55:49;;;;;;;18.75;10.80;;;;;;;;;;5013692;28;20040;-56
2023/01/09 07:58:15;;;;;;;16.38;11.25;;;;;;;;;;5014478;28;20109;-56
2023/01/09 08:00:41;;;;;;;18.90;11.00;;;;;;;;;;5013945;28;20022;-61
2023/01/09 08:03:07;;;;;;;16.67;10.63;;;;;;;;;;5013744;28;20029;-58
2023/01/09 08:05:33;;;;;;;17.95;10.82;;;;;;;;;;5013610;28;20124;-59
2023/01/09 08:08:00;;;;;;;18.65;10.32;;;;;;;;;;5013411;28;20128;-59
2023/01/09 08:10:26;;;;;;;18.92;10.38;;;;;;;;;;5013443;28;20092;-59
2023/01/09 08:12:52;;;;;;;18.48;10.70;;;;;;;;;;5013888;28;20517;-60
2023/01/09 08:15:18;;;;;;;17.20;10.68;;;;;;;;;;5028876;28;20022;-60
2023/01/09 08:17:45;;;;;;;18.33;10.32;;;;;;;;;;5029059;28;20188;-60
2023/01/09 08:20:12;;;;;;;16.45;10.10;;;;;;;;;;5013779;28;20026;-60
2023/01/09 08:22:38;;;;;;;16.02;10.48;;;;;;;;;;5013748;28;20034;-60
2023/01/09 08:25:05;;;;;;;17.95;10.93;;;;;;;;;;5013767;28;20030;-63
2023/01/09 08:27:31;;;;;;;21.70;10.75;;;;;;;;;;5011875;28;20026;-61
2023/01/09 08:29:57;;;;;;;20.25;11.25;;;;;;;;;;5011976;28;20442;-62
2023/01/09 08:32:24;;;;;;;17.58;10.52;;;;;;;;;;5011819;28;20068;-62
2023/01/09 08:34:50;;;;;;;16.05;10.05;;;;;;;;;;5011359;28;20375;-61
2023/01/09 08:37:16;;;;;;;18.38;10.77;;;;;;;;;;5012721;28;20105;-61
2023/01/09 08:39:42;;;;;;;16.60;10.32;;;;;;;;;;5013324;28;20105;-62
2023/01/09 08:47:39;;;;;;;21.42;10.68;;;;;;;;;;5012331;28;20045;-60
2023/01/09 08:50:06;;;;;;;18.90;10.60;;;;;;;;;;5011677;28;20022;-62
2023/01/09 08:52:32;;;;;;;17.48;10.55;;;;;;;;;;5012503;28;20108;-62
2023/01/09 08:54:58;;;;;;;18.63;9.55;;;;;;;;;;5012219;28;20108;-62
2023/01/09 08:57:24;;;;;;;17.63;9.43;;;;;;;;;;5011269;28;20087;-62
2023/01/09 08:59:50;;;;;;;17.17;9.65;;;;;;;;;;5011376;28;20018;-62
2023/01/09 09:02:16;;;;;;;15.65;9.55;;;;;;;;;;5011575;28;20497;-63
2023/01/09 09:04:42;;;;;;;17.05;8.60;;;;;;;;;;5011506;28;20037;-61
2023/01/09 09:07:08;;;;;;;19.80;9.32;;;;;;;;;;5012652;28;20042;-61
2023/01/09 09:09:34;;;;;;;15.40;9.00;;;;;;;;;;5011303;28;20057;-62
2023/01/09 09:12:00;;;;;;;17.33;10.07;;;;;;;;;;5012472;28;20033;-64
2023/01/09 09:17:10;;;;;;;20.45;8.60;;;;;;;;;;5012224;28;20079;-63
2023/01/09 09:19:38;;;;;;;15.93;9.43;;;;;;;;;;5009858;28;20029;-63
2023/01/09 09:22:04;;;;;;;16.75;9.60;;;;;;;;;;5010572;28;20024;-63
2023/01/09 09:24:30;;;;;;;16.92;9.88;;;;;;;;;;5010674;28;20160;-63
2023/01/09 09:26:56;;;;;;;16.10;9.10;;;;;;;;;;5011221;28;20517;-63
2023/01/09 09:29:22;;;;;;;16.85;9.30;;;;;;;;;;5010381;28;20033;-63
2023/01/09 09:31:48;;;;;;;16.42;10.18;;;;;;;;;;5012125;28;20401;-63
2023/01/09 09:34:14;;;;;;;17.58;8.95;;;;;;;;;;5011552;28;20030;-62
2023/01/09 09:36:40;;;;;;;17.23;8.70;;;;;;;;;;5011968;28;20026;-63
2023/01/09 09:39:07;;;;;;;16.63;9.45;;;;;;;;;;5010846;28;20161;-63
2023/01/09 09:44:42;;;;;;;18.67;9.45;;;;;;;;;;5011837;28;20509;-64
2023/01/09 09:47:14;;;;;;;16.98;9.40;;;;;;;;;;4991367;28;20483;-64
2023/01/09 09:49:46;;;;;;;17.20;8.88;;;;;;;;;;4992272;28;20442;-63
2023/01/09 09:52:15;;;;;;;19.60;10.52;;;;;;;;;;5007348;28;20026;-64
2023/01/09 09:54:46;;;;;;;18.45;9.68;;;;;;;;;;5006725;28;20122;-63
2023/01/09 09:57:16;;;;;;;18.50;9.75;;;;;;;;;;5007171;28;20498;-63
2023/01/09 09:59:42;;;;;;;16.05;9.88;;;;;;;;;;4992333;28;20022;-61
2023/01/09 10:02:08;;;;;;;15.88;10.00;;;;;;;;;;4991990;28;20026;-63
2023/01/09 10:04:36;;;;;;;16.48;8.60;;;;;;;;;;4991183;28;20033;-64
2023/01/09 10:07:05;;;;;;;16.70;9.80;;;;;;;;;;5006948;28;20039;-63
2023/01/09 10:09:50;;;;;;;17.13;9.98;;;;;;;;;;4992017;28;20076;-64
2023/01/09 10:12:29;;;;;;;16.75;10.05;;;;;;;;;;4991936;28;20026;-63
2023/01/09 10:14:56;;;;;;;18.02;9.82;;;;;;;;;;4991683;28;20496;-63
2023/01/09 10:17:28;;;;;;;16.80;9.63;;;;;;;;;;4991746;28;20442;-63
2023/01/09 10:20:13;;;;;;;15.18;9.25;;;;;;;;;;5007061;28;20030;-63
2023/01/09 10:22:44;;;;;;;18.08;9.40;;;;;;;;;;5006924;28;20110;-63
2023/01/09 10:25:26;;;;;;;16.70;10.40;;;;;;;;;;5006709;28;20026;-64
2023/01/09 10:27:52;;;;;;;16.83;10.80;;;;;;;;;;5006984;28;20026;-65
2023/01/09 10:30:23;;;;;;;18.25;10.70;;;;;;;;;;5006963;28;20426;-63
2023/01/09 10:33:01;;;;;;;17.73;11.90;;;;;;;;;;5007214;28;20391;-64
2023/01/09 10:35:40;;;;;;;20.15;12.13;;;;;;;;;;5007085;28;20018;-63
2023/01/09 10:38:08;;;;;;;18.13;12.30;;;;;;;;;;5006883;28;20022;-61
2023/01/09 10:40:55;;;;;;;18.95;14.10;;;;;;;;;;5007021;28;20073;-63
2023/01/09 10:43:31;;;;;;;21.23;18.73;;;;;;;;;;4991746;28;20042;-62
2023/01/09 10:46:03;;;;;;;21.42;18.77;;;;;;;;;;5002708;28;20022;-59
2023/01/09 10:48:36;;;;;;;27.67;25.02;;;;;;;;;;5009747;28;20038;-63
2023/01/09 10:51:18;;;;;;;31.00;28.10;;;;;;;;;;5011359;28;20025;-63
2023/01/09 10:53:47;;;;;;;32.95;30.35;;;;;;;;;;5010524;28;20435;-62
2023/01/09 10:56:17;;;;;;;31.60;28.80;;;;;;;;;;5011179;28;20033;-62
2023/01/09 10:58:43;;;;;;;30.58;28.13;;;;;;;;;;5010051;28;20030;-62
2023/01/09 11:01:09;;;;;;;28.65;26.25;;;;;;;;;;5011201;28;20076;-62
2023/01/09 11:03:37;;;;;;;28.83;26.27;;;;;;;;;;5009603;28;20025;-62
2023/01/09 11:06:03;;;;;;;27.80;25.38;;;;;;;;;;5009754;28;20076;-63
2023/01/09 11:08:32;;;;;;;26.92;24.63;;;;;;;;;;5009936;28;20080;-61
2023/01/09 11:10:59;;;;;;;25.65;23.15;;;;;;;;;;5010868;28;20026;-63
2023/01/09 11:13:28;;;;;;;27.35;24.70;;;;;;;;;;5010137;28;20073;-62
2023/01/09 11:15:54;;;;;;;;;;;;;;;;;;5012020;28;20032;-62
2023/01/09 11:18:23;;;;;;;26.00;23.50;;;;;;;;;;5013341;28;19905;-63
2023/01/09 11:20:49;;;;;;;25.55;22.90;;;;;;;;;;5014921;28;20477;-61
2023/01/09 11:23:29;;;;;;;25.73;23.38;;;;;;;;;;5014094;28;20354;-61
2023/01/09 11:25:56;;;;;;;25.92;23.58;;;;;;;;;;5013313;28;20038;-62
2023/01/09 11:28:23;;;;;;;26.83;24.33;;;;;;;;;;5013305;28;20585;-60
2023/01/09 11:30:53;;;;;;;26.40;24.02;;;;;;;;;;5006745;28;20018;-61
2023/01/09 11:33:27;;;;;;;25.77;23.33;;;;;;;;;;5013602;28;20018;-63
2023/01/09 11:35:53;;;;;;;26.42;24.05;;;;;;;;;;5020848;28;20053;-60
2023/01/09 11:38:19;;;;;;;26.90;24.50;;;;;;;;;;5013975;28;20044;-60
2023/01/09 11:40:48;;;;;;;29.80;26.90;;;;;;;;;;5014232;28;20022;-62
2023/01/09 11:43:24;;;;;;;30.58;27.80;;;;;;;;;;5023413;28;20514;-60
2023/01/09 11:45:55;;;;;;;29.40;26.83;;;;;;;;;;5021926;28;20037;-58
2023/01/09 11:48:29;;;;;;;28.08;25.58;;;;;;;;;;5012936;28;20022;-62
2023/01/09 11:50:56;;;;;;;24.20;21.55;;;;;;;;;;5014053;28;20478;-62
2023/01/09 11:53:23;;;;;;;23.23;20.50;;;;;;;;;;5012352;28;20474;-59
2023/01/09 11:55:54;;;;;;;21.40;18.00;;;;;;;;;;5013946;28;20014;-62
2023/01/09 11:58:21;;;;;;;19.45;16.02;;;;;;;;;;5014100;28;20026;-63
2023/01/09 12:00:50;;;;;;;19.00;15.75;;;;;;;;;;5013814;28;20018;-65
2023/01/09 12:03:34;;;;;;;18.58;14.40;;;;;;;;;;5013130;28;20070;-61
2023/01/09 12:06:13;;;;;;;18.77;13.45;;;;;;;;;;5012336;28;20518;-62
2023/01/09 12:08:39;;;;;;;20.02;13.85;;;;;;;;;;5012532;28;20075;-63
2023/01/09 12:11:23;;;;;;;17.20;13.85;;;;;;;;;;5013910;28;20042;-63
2023/01/09 12:13:59;;;;;;;18.90;14.05;;;;;;;;;;5011862;28;20034;-64
2023/01/09 12:16:31;;;;;;;17.45;13.13;;;;;;;;;;5013295;28;20445;-64
2023/01/09 12:19:06;;;;;;;18.80;14.13;;;;;;;;;;5013783;28;20033;-62
2023/01/09 12:21:41;;;;;;;19.02;14.98;;;;;;;;;;5014236;28;20040;-64
2023/01/09 12:24:25;;;;;;;17.88;13.85;;;;;;;;;;5013191;28;20565;-64
2023/01/09 12:27:10;;;;;;;16.10;12.73;;;;;;;;;;5012739;28;20068;-65
2023/01/09 12:29:42;;;;;;;16.35;12.02;;;;;;;;;;5011916;28;20076;-63
2023/01/09 12:32:13;;;;;;;15.77;12.15;;;;;;;;;;5012132;28;20058;-61
2023/01/09 12:34:42;;;;;;;18.77;12.93;;;;;;;;;;5013054;28;20026;-61
2023/01/09 12:37:27;;;;;;;20.88;13.18;;;;;;;;;;5013486;28;20098;-63
2023/01/09 12:40:12;;;;;;;16.88;13.18;;;;;;;;;;5012253;28;20060;-64
2023/01/09 12:42:56;;;;;;;18.25;12.40;;;;;;;;;;5011955;28;20032;-64
2023/01/09 12:45:22;;;;;;;17.88;12.75;;;;;;;;;;4659812;28;10000158;-64
2023/01/09 12:47:51;;;;;;;20.15;12.90;;;;;;;;;;5008450;28;20029;-60
2023/01/09 12:50:17;;;;;;;;;;;;;;;;;;5010521;28;20076;-65
2023/01/09 12:52:48;;;;;;;17.98;12.05;;;;;;;;;;5010191;28;19913;-62
2023/01/09 12:55:20;;;;;;;15.38;10.80;;;;;;;;;;5008626;28;20026;-63
2023/01/09 12:57:48;;;;;;;17.98;10.45;;;;;;;;;;5009435;28;20018;-62
2023/01/09 13:00:14;;;;;;;16.92;10.32;;;;;;;;;;5009808;28;20041;-63
2023/01/09 13:02:49;;;;;;;15.68;10.10;;;;;;;;;;5010192;28;20030;-63
2023/01/09 13:05:24;;;;;;;17.30;10.00;;;;;;;;;;5008601;28;20068;-62
2023/01/09 13:07:55;;;;;;;18.38;9.55;;;;;;;;;;5009805;28;20046;-62
2023/01/09 13:10:25;;;;;;;17.88;9.45;;;;;;;;;;5009610;28;20033;-59
2023/01/09 13:12:51;;;;;;;15.93;10.10;;;;;;;;;;5009814;28;20026;-63
2023/01/09 13:15:32;;;;;;;17.80;9.80;;;;;;;;;;5009683;28;20029;-63
2023/01/09 13:18:06;;;;;;;19.20;11.27;;;;;;;;;;5009376;28;20085;-62
2023/01/09 13:20:35;;;;;;;16.83;10.32;;;;;;;;;;5008368;28;20426;-64
2023/01/09 13:23:03;;;;;;;17.15;10.30;;;;;;;;;;5007998;28;20033;-61
2023/01/09 13:25:35;;;;;;;15.48;10.80;;;;;;;;;;5009531;28;20128;-67
2023/01/09 13:28:13;;;;;;;18.77;10.35;;;;;;;;;;5009051;28;20034;-64
2023/01/09 13:30:45;;;;;;;15.02;10.18;;;;;;;;;;5009183;28;20096;-64
2023/01/09 13:33:18;;;;;;;15.60;9.75;;;;;;;;;;5009005;28;20029;-63
2023/01/09 13:35:52;;;;;;;18.75;10.60;;;;;;;;;;5008927;28;20630;-63
2023/01/09 13:38:19;;;;;;;16.45;9.85;;;;;;;;;;5009264;28;20022;-63
2023/01/09 13:40:45;;;;;;;19.02;10.90;;;;;;;;;;5007013;28;20065;-62
2023/01/09 13:43:13;;;;;;;17.40;10.45;;;;;;;;;;5007437;28;20068;-64
2023/01/09 13:45:39;;;;;;;17.67;10.70;;;;;;;;;;5003481;28;20033;-64
2023/01/09 13:48:09;;;;;;;24.23;15.38;;;;;;;;;;5009459;28;20397;-64
2023/01/09 13:50:35;;;;;;;18.15;14.50;;;;;;;;;;5008943;28;20045;-64
2023/01/09 13:53:17;;;;;;;19.48;14.38;;;;;;;;;;5007604;28;20487;-60
2023/01/09 13:55:55;;;;;;;18.42;16.52;;;;;;;;;;5008932;28;20443;-63
2023/01/09 13:58:21;;;;;;;18.95;16.65;;;;;;;;;;5007866;28;20026;-65
2023/01/09 14:00:48;;;;;;;22.25;17.75;;;;;;;;;;5009229;28;20643;-62
2023/01/09 14:03:19;;;;;;;20.83;17.25;;;;;;;;;;5008722;28;20065;-64
2023/01/09 14:05:45;;;;;;;19.42;17.15;;;;;;;;;;5008825;28;20025;-64
2023/01/09 14:08:12;;;;;;;19.98;15.30;;;;;;;;;;5009012;28;20040;-63
2023/01/09 14:10:44;;;;;;;18.40;15.20;;;;;;;;;;5008972;28;20053;-64
2023/01/09 14:13:15;;;;;;;23.30;20.10;;;;;;;;;;5008619;28;20371;-65
2023/01/09 14:15:48;;;;;;;22.52;20.23;;;;;;;;;;5008809;28;20034;-63
2023/01/09 14:18:14;;;;;;;24.85;22.55;;;;;;;;;;5008514;28;20034;-64
2023/01/09 14:20:45;;;;;;;28.48;25.80;;;;;;;;;;5007077;28;20394;-63
2023/01/09 14:23:22;;;;;;;33.80;30.73;;;;;;;;;;5008229;28;20048;-63
2023/01/09 14:25:49;;;;;;;43.25;39.83;;;;;;;;;;5007022;28;20406;-63
2023/01/09 14:28:33;;;;;;;43.58;40.15;;;;;;;;;;5008624;28;20025;-63
2023/01/09 14:30:59;;;;;;;45.28;41.80;;;;;;;;;;5008979;28;20061;-63
2023/01/09 14:33:27;;;;;;;27.75;25.30;;;;;;;;;;5008925;28;20058;-61
2023/01/09 14:35:56;;;;;;;28.55;25.75;;;;;;;;;;5009297;28;20557;-63
2023/01/09 14:38:22;;;;;;;;;;;;;;;;;;5009750;28;20034;-62
2023/01/09 14:40:59;;;;;;;28.05;25.45;;;;;;;;;;5008543;28;20392;-60